createdAt,value
2022-12-03T00:04:01.446Z,101010.53
2022-12-03T00:09:05.048Z,101014.06
2022-12-03T00:14:09.232Z,101009.34
2022-12-03T00:19:12.111Z,101009.66
2022-12-03T00:24:14.951Z,101007.63
2022-12-03T00:29:19.053Z,101003.34
2022-12-03T00:34:22.544Z,101012.25
2022-12-03T00:39:25.294Z,101005.81
2022-12-03T00:44:29.551Z,101013.97
2022-12-03T00:49:32.479Z,101015.78
2022-12-03T00:54:35.518Z,101010.53
2022-12-03T00:59:39.634Z,101010.53
2022-12-03T01:04:42.417Z,101005.81
2022-12-03T01:09:45.290Z,101007.06
2022-12-03T01:14:49.412Z,101010.06
2022-12-03T01:19:52.808Z,101006.31
2022-12-03T01:24:55.900Z,101009.47
2022-12-03T01:30:00.114Z,101008.63
2022-12-03T01:35:02.856Z,101002.78
2022-12-03T01:40:07.033Z,101003.25
2022-12-03T01:45:14.712Z,101001.09
2022-12-03T01:50:20.702Z,100995.53
2022-12-03T01:55:23.565Z,100987.00
2022-12-03T02:00:27.830Z,100981.38
2022-12-03T02:05:31.822Z,100978.13
2022-12-03T02:10:36.022Z,100988.56
2022-12-03T02:15:40.548Z,100992.53
2022-12-03T02:20:47.902Z,100996.00
2022-12-03T02:25:52.090Z,100994.31
2022-12-03T02:30:54.974Z,100993.44
2022-12-03T02:36:03.155Z,100996.88
2022-12-03T02:41:08.996Z,100994.31
2022-12-03T02:46:11.781Z,100992.09
2022-12-03T02:51:14.533Z,100994.50
2022-12-03T02:56:22.390Z,101004.44
2022-12-03T03:01:25.225Z,101001.50
2022-12-03T03:06:28.237Z,101002.66
2022-12-03T03:11:32.353Z,101004.38
2022-12-03T03:16:35.360Z,100999.97
2022-12-03T03:21:39.840Z,101000.06
2022-12-03T03:26:44.139Z,100992.88
2022-12-03T03:31:47.136Z,101001.00
2022-12-03T03:36:49.920Z,101000.25
2022-12-03T03:41:54.053Z,100999.97
2022-12-03T03:46:56.841Z,101001.78
2022-12-03T03:51:59.595Z,100992.88
2022-12-03T03:57:03.831Z,101000.16
2022-12-03T04:02:06.609Z,100995.53
2022-12-03T04:07:09.550Z,100986.38
2022-12-03T04:12:31.147Z,100987.59
2022-12-03T04:17:34.007Z,100970.50
2022-12-03T04:22:42.713Z,100979.78
2022-12-03T04:28:04.529Z,100979.56
2022-12-03T04:33:24.803Z,100972.59
2022-12-03T04:38:27.710Z,100976.13
2022-12-03T04:43:34.388Z,100982.44
2022-12-03T04:48:37.159Z,100976.78
2022-12-03T04:53:45.963Z,100978.69
2022-12-03T04:58:50.367Z,100967.44
2022-12-03T05:03:53.459Z,100966.38
2022-12-03T05:08:56.568Z,100967.44
2022-12-03T05:14:01.520Z,100966.84
2022-12-03T05:19:05.140Z,100957.56
2022-12-03T05:24:08.232Z,100959.06
2022-12-03T05:29:12.348Z,100957.22
2022-12-03T05:34:15.095Z,100952.72
2022-12-03T05:39:18.440Z,100951.56
2022-12-03T05:44:22.560Z,100949.63
2022-12-03T05:49:25.500Z,100953.84
2022-12-03T05:54:28.357Z,100952.13
2022-12-03T05:59:32.636Z,100939.47
2022-12-03T06:04:35.389Z,100941.41
2022-12-03T06:09:38.117Z,100937.75
2022-12-03T06:14:42.382Z,100939.25
2022-12-03T06:19:45.151Z,100949.03
2022-12-03T06:24:47.943Z,100951.63
2022-12-03T06:29:52.059Z,100954.59
2022-12-03T06:34:55.194Z,100952.78
2022-12-03T06:39:58.236Z,100948.06
2022-12-03T06:45:02.377Z,100943.97
2022-12-03T06:50:07.423Z,100935.81
2022-12-03T06:55:10.811Z,100945.69
2022-12-03T07:00:15.611Z,100941.06
2022-12-03T07:05:18.564Z,100954.31
2022-12-03T07:10:21.447Z,100936.47
2022-12-03T07:15:25.591Z,100946.56
2022-12-03T07:20:28.451Z,100947.72
2022-12-03T07:25:33.323Z,100945.91
2022-12-03T07:30:37.494Z,100944.72
2022-12-03T07:35:40.320Z,100948.16
2022-12-03T07:40:43.088Z,100941.81
2022-12-03T07:45:47.251Z,100950.94
2022-12-03T07:50:50.096Z,100940.97
2022-12-03T07:55:53.075Z,100952.66
2022-12-03T08:00:57.182Z,100951.25
2022-12-03T08:06:00.156Z,100948.66
2022-12-03T08:11:03.344Z,100949.09
2022-12-03T08:16:15.156Z,100948.00
2022-12-03T08:21:19.141Z,100938.00
2022-12-03T08:26:23.650Z,100933.19
2022-12-03T08:31:33.273Z,100925.78
2022-12-03T08:36:36.731Z,100935.00
2022-12-03T08:41:53.430Z,100934.34
2022-12-03T08:47:02.072Z,100931.72
2022-12-03T08:52:12.325Z,100940.78
2022-12-03T08:57:23.748Z,100933.38
2022-12-03T09:02:32.123Z,100930.38
2022-12-03T09:07:35.292Z,100922.44
2022-12-03T09:12:38.139Z,100929.63
2022-12-03T09:17:42.276Z,100922.31
2022-12-03T09:22:45.198Z,100926.66
2022-12-03T09:27:47.961Z,100924.25
2022-12-03T09:32:52.127Z,100918.03
2022-12-03T09:37:54.903Z,100921.78
2022-12-03T09:42:58.694Z,100928.88
2022-12-03T09:48:02.917Z,100926.41
2022-12-03T09:53:05.754Z,100926.09
2022-12-03T09:58:10.928Z,100915.13
2022-12-03T10:03:16.145Z,100911.28
2022-12-03T10:08:21.352Z,100914.63
2022-12-03T10:13:26.359Z,100909.91
2022-12-03T10:18:36.897Z,100904.75
2022-12-03T10:23:43.615Z,100903.97
2022-12-03T10:28:47.511Z,100891.13
2022-12-03T10:33:53.567Z,100891.13
2022-12-03T10:39:11.063Z,100889.38
2022-12-03T10:44:17.282Z,100882.06
2022-12-03T10:49:21.465Z,100878.75
2022-12-03T10:54:25.095Z,100880.91
2022-12-03T10:59:30.903Z,100864.03
2022-12-03T11:04:35.988Z,100858.66
2022-12-03T11:09:39.000Z,100855.22
2022-12-03T11:15:06.405Z,100858.03
2022-12-03T11:20:16.864Z,100857.25
2022-12-03T11:25:46.825Z,100854.69
2022-12-03T11:31:01.343Z,100854.25
2022-12-03T11:36:36.537Z,100849.16
2022-12-03T11:41:43.714Z,100833.44
2022-12-03T11:46:46.875Z,100831.28
2022-12-03T11:51:51.102Z,100816.22
2022-12-03T11:56:54.039Z,100818.41
2022-12-03T12:01:56.756Z,100816.03
2022-12-03T12:07:00.955Z,100819.06
2022-12-03T12:12:19.028Z,100822.66
2022-12-03T12:17:32.623Z,100817.88
2022-12-03T12:22:36.812Z,100816.47
2022-12-03T12:27:45.077Z,100809.63
2022-12-03T12:32:48.383Z,100804.75
2022-12-03T12:37:58.998Z,100793.84
2022-12-03T12:43:11.566Z,100789.88
2022-12-03T12:48:23.154Z,100791.44
2022-12-03T12:53:28.192Z,100792.53
2022-12-03T12:58:32.917Z,100790.97
2022-12-03T13:03:37.598Z,100777.09
2022-12-03T13:08:43.664Z,100767.97
2022-12-03T13:13:46.413Z,100757.88
2022-12-03T13:18:49.781Z,100758.63
2022-12-03T13:23:55.160Z,100743.69
2022-12-03T13:28:57.946Z,100742.53
2022-12-03T13:34:00.959Z,100750.81
2022-12-03T13:39:11.198Z,100754.47
2022-12-03T13:44:16.787Z,100757.25
2022-12-03T13:49:21.912Z,100745.13
2022-12-03T13:54:27.671Z,100750.97
2022-12-03T13:59:30.467Z,100744.38
2022-12-03T14:04:33.420Z,100755.31
2022-12-03T14:09:37.702Z,100765.19
2022-12-03T14:14:40.672Z,100766.03
2022-12-03T14:19:43.504Z,100765.34
2022-12-03T14:24:47.782Z,100762.94
2022-12-03T14:29:50.750Z,100765.28
2022-12-03T14:34:53.588Z,100770.31
2022-12-03T14:39:58.014Z,100769.97
2022-12-03T14:45:00.957Z,100767.44
2022-12-03T14:50:05.088Z,100769.56
2022-12-03T14:55:10.050Z,100763.22
2022-12-03T15:00:28.076Z,100756.16
2022-12-03T15:05:31.090Z,100761.19
2022-12-03T15:10:35.222Z,100756.28
2022-12-03T15:15:37.986Z,100763.22
2022-12-03T15:20:40.802Z,100757.22
2022-12-03T15:25:45.069Z,100759.44
2022-12-03T15:30:47.830Z,100761.66
2022-12-03T15:35:50.570Z,100760.31
2022-12-03T15:40:54.779Z,100760.94
2022-12-03T15:45:57.569Z,100768.50
2022-12-03T15:51:00.387Z,100761.94
2022-12-03T15:56:04.943Z,100761.22
2022-12-03T16:01:07.859Z,100756.06
2022-12-03T16:06:10.615Z,100755.19
2022-12-03T16:11:14.759Z,100750.66
2022-12-03T16:16:17.557Z,100755.81
2022-12-03T16:21:25.098Z,100752.88
2022-12-03T16:26:31.285Z,100743.59
2022-12-03T16:31:35.178Z,100742.84
2022-12-03T16:36:38.150Z,100746.28
2022-12-03T16:41:42.337Z,100749.72
2022-12-03T16:46:45.277Z,100749.47
2022-12-03T16:51:50.012Z,100748.22
2022-12-03T16:56:54.225Z,100739.78
2022-12-03T17:01:57.231Z,100726.31
2022-12-03T17:07:00.254Z,100730.72
2022-12-03T17:12:05.007Z,100726.19
2022-12-03T17:17:07.966Z,100725.88
2022-12-03T17:22:11.235Z,100735.00
2022-12-03T17:27:15.772Z,100713.13
2022-12-03T17:32:18.776Z,100718.72
2022-12-03T17:37:21.693Z,100708.69
2022-12-03T17:42:26.063Z,100706.41
2022-12-03T17:47:29.039Z,100710.81
2022-12-03T17:52:32.047Z,100710.94
2022-12-03T17:57:36.538Z,100709.09
2022-12-03T18:02:39.535Z,100715.31
2022-12-03T18:07:42.471Z,100711.28
2022-12-03T18:12:47.478Z,100712.59
2022-12-03T18:17:50.376Z,100722.03
2022-12-03T18:22:53.264Z,100716.63
2022-12-03T18:27:57.505Z,100710.88
2022-12-03T18:33:00.545Z,100715.41
2022-12-03T18:38:03.308Z,100708.75
2022-12-03T18:43:11.788Z,100702.88
2022-12-03T18:48:14.928Z,100702.88
2022-12-03T18:53:19.094Z,100695.16
2022-12-03T18:58:23.548Z,100695.66
2022-12-03T19:03:26.432Z,100695.16
2022-12-03T19:08:29.478Z,100691.25
2022-12-03T19:13:33.634Z,100690.50
2022-12-03T19:18:36.695Z,100694.78
2022-12-03T19:23:39.731Z,100708.25
2022-12-03T19:28:44.272Z,100695.50
2022-12-03T19:33:47.182Z,100701.72
2022-12-03T19:38:56.458Z,100701.22
2022-12-03T19:49:07.351Z,100699.63
2022-12-03T19:54:11.787Z,100709.66
2022-12-03T19:59:16.036Z,100701.06
2022-12-03T20:04:18.859Z,100704.09
2022-12-03T20:09:22.551Z,100704.84
2022-12-03T20:14:26.695Z,100708.50
2022-12-03T20:19:29.441Z,100708.63
2022-12-03T20:24:32.384Z,100697.13
2022-12-03T20:29:36.546Z,100696.38
2022-12-03T20:34:39.551Z,100697.34
2022-12-03T20:39:42.587Z,100687.22
2022-12-03T20:44:46.837Z,100688.31
2022-12-03T20:49:49.573Z,100675.97
2022-12-03T20:54:52.398Z,100676.22
2022-12-03T20:59:56.828Z,100669.00
2022-12-03T21:04:59.806Z,100674.28
2022-12-03T21:10:02.597Z,100684.03
2022-12-03T21:15:07.688Z,100687.59
2022-12-03T21:20:11.181Z,100679.41
2022-12-03T21:25:13.972Z,100676.97
2022-12-03T21:30:18.156Z,100676.31
2022-12-03T21:35:21.087Z,100666.34
2022-12-03T21:40:23.857Z,100677.81
2022-12-03T21:45:28.089Z,100672.78
2022-12-03T21:50:30.853Z,100675.13
2022-12-03T21:55:33.819Z,100669.75
2022-12-03T22:00:38.079Z,100671.59
2022-12-03T22:05:41.049Z,100675.34
2022-12-03T22:10:43.823Z,100671.31
2022-12-03T22:15:48.031Z,100677.00
2022-12-03T22:20:50.977Z,100667.47
2022-12-03T22:25:58.945Z,100664.91
2022-12-03T22:31:06.848Z,100669.63
2022-12-03T22:36:17.970Z,100657.63
2022-12-03T22:41:22.615Z,100659.06
2022-12-03T22:46:26.806Z,100653.06
2022-12-03T22:51:30.245Z,100646.44
2022-12-03T22:56:33.153Z,100647.28
2022-12-03T23:01:38.726Z,100638.56
2022-12-03T23:06:41.780Z,100641.38
2022-12-03T23:11:45.194Z,100632.81
2022-12-03T23:16:49.341Z,100631.84
2022-12-03T23:21:52.498Z,100632.72
2022-12-03T23:26:55.280Z,100625.88
2022-12-03T23:31:59.640Z,100628.75
2022-12-03T23:37:02.421Z,100638.63
2022-12-03T23:42:05.245Z,100626.94
2022-12-03T23:47:09.387Z,100623.63
2022-12-03T23:52:12.194Z,100607.75
2022-12-03T23:57:15.902Z,100602.28
